sensor_id;sensor_type;location;lat;lon;timestamp;P1;durP1;ratioP1;P2;durP2;ratioP2
13866;SDS011;7003;46.982;15.248;2023-02-12T00:00:12;5.27;;;4.13;;
13866;SDS011;7003;46.982;15.248;2023-02-12T00:02:40;6.97;;;2.90;;
13866;SDS011;7003;46.982;15.248;2023-02-12T00:05:07;4.90;;;3.03;;
13866;SDS011;7003;46.982;15.248;2023-02-12T00:07:37;8.03;;;3.93;;
13866;SDS011;7003;46.982;15.248;2023-02-12T00:10:06;5.23;;;3.23;;
13866;SDS011;7003;46.982;15.248;2023-02-12T00:12:40;3.90;;;3.47;;
13866;SDS011;7003;46.982;15.248;2023-02-12T00:15:07;16.33;;;5.83;;
13866;SDS011;7003;46.982;15.248;2023-02-12T00:17:37;8.43;;;5.10;;
13866;SDS011;7003;46.982;15.248;2023-02-12T00:20:04;6.43;;;4.90;;
13866;SDS011;7003;46.982;15.248;2023-02-12T00:22:32;6.70;;;4.13;;
13866;SDS011;7003;46.982;15.248;2023-02-12T00:24:59;4.67;;;2.93;;
13866;SDS011;7003;46.982;15.248;2023-02-12T00:27:27;7.20;;;4.67;;
13866;SDS011;7003;46.982;15.248;2023-02-12T00:30:00;5.27;;;3.27;;
13866;SDS011;7003;46.982;15.248;2023-02-12T00:32:27;2.97;;;2.50;;
13866;SDS011;7003;46.982;15.248;2023-02-12T00:34:56;2.90;;;2.63;;
13866;SDS011;7003;46.982;15.248;2023-02-12T00:37:23;6.80;;;3.57;;
13866;SDS011;7003;46.982;15.248;2023-02-12T00:39:50;6.37;;;3.23;;
13866;SDS011;7003;46.982;15.248;2023-02-12T00:42:20;4.17;;;2.83;;
13866;SDS011;7003;46.982;15.248;2023-02-12T00:44:50;9.20;;;3.73;;
13866;SDS011;7003;46.982;15.248;2023-02-12T00:47:18;6.73;;;4.00;;
13866;SDS011;7003;46.982;15.248;2023-02-12T00:49:45;3.77;;;3.43;;
13866;SDS011;7003;46.982;15.248;2023-02-12T00:52:14;3.27;;;2.97;;
13866;SDS011;7003;46.982;15.248;2023-02-12T00:54:41;4.03;;;2.47;;
13866;SDS011;7003;46.982;15.248;2023-02-12T00:57:08;2.73;;;2.00;;
13866;SDS011;7003;46.982;15.248;2023-02-12T00:59:37;6.43;;;3.30;;
13866;SDS011;7003;46.982;15.248;2023-02-12T01:02:07;3.23;;;2.87;;
13866;SDS011;7003;46.982;15.248;2023-02-12T01:04:35;5.30;;;3.03;;
13866;SDS011;7003;46.982;15.248;2023-02-12T01:07:02;6.53;;;3.67;;
13866;SDS011;7003;46.982;15.248;2023-02-12T01:09:29;7.47;;;3.60;;
13866;SDS011;7003;46.982;15.248;2023-02-12T01:11:58;3.37;;;3.07;;
13866;SDS011;7003;46.982;15.248;2023-02-12T01:14:28;3.17;;;2.87;;
13866;SDS011;7003;46.982;15.248;2023-02-12T01:16:57;3.73;;;2.70;;
13866;SDS011;7003;46.982;15.248;2023-02-12T01:19:25;5.77;;;3.63;;
13866;SDS011;7003;46.982;15.248;2023-02-12T01:21:53;4.73;;;2.93;;
13866;SDS011;7003;46.982;15.248;2023-02-12T01:24:23;3.27;;;2.40;;
13866;SDS011;7003;46.982;15.248;2023-02-12T01:26:50;4.23;;;2.60;;
13866;SDS011;7003;46.982;15.248;2023-02-12T01:29:19;3.53;;;3.20;;
13866;SDS011;7003;46.982;15.248;2023-02-12T01:31:48;4.87;;;3.57;;
13866;SDS011;7003;46.982;15.248;2023-02-12T01:34:18;3.73;;;2.90;;
13866;SDS011;7003;46.982;15.248;2023-02-12T01:36:46;8.03;;;4.20;;
13866;SDS011;7003;46.982;15.248;2023-02-12T01:39:15;4.23;;;2.60;;
13866;SDS011;7003;46.982;15.248;2023-02-12T01:41:44;7.97;;;3.07;;
13866;SDS011;7003;46.982;15.248;2023-02-12T01:44:15;3.03;;;2.70;;
13866;SDS011;7003;46.982;15.248;2023-02-12T01:46:44;4.57;;;2.90;;
13866;SDS011;7003;46.982;15.248;2023-02-12T01:49:16;5.70;;;3.03;;
13866;SDS011;7003;46.982;15.248;2023-02-12T01:51:53;6.07;;;5.43;;
13866;SDS011;7003;46.982;15.248;2023-02-12T01:54:26;13.33;;;6.27;;
13866;SDS011;7003;46.982;15.248;2023-02-12T01:57:04;8.60;;;4.90;;
13866;SDS011;7003;46.982;15.248;2023-02-12T01:59:37;3.03;;;2.83;;
13866;SDS011;7003;46.982;15.248;2023-02-12T02:02:07;9.30;;;4.00;;
13866;SDS011;7003;46.982;15.248;2023-02-12T02:04:39;8.80;;;5.07;;
13866;SDS011;7003;46.982;15.248;2023-02-12T02:07:11;4.17;;;3.77;;
13866;SDS011;7003;46.982;15.248;2023-02-12T02:09:41;5.17;;;4.07;;
13866;SDS011;7003;46.982;15.248;2023-02-12T02:12:10;3.37;;;3.07;;
13866;SDS011;7003;46.982;15.248;2023-02-12T02:14:57;3.57;;;3.27;;
13866;SDS011;7003;46.982;15.248;2023-02-12T02:17:32;6.17;;;3.03;;
13866;SDS011;7003;46.982;15.248;2023-02-12T02:26:34;6.20;;;4.47;;
13866;SDS011;7003;46.982;15.248;2023-02-12T02:29:33;4.17;;;2.97;;
13866;SDS011;7003;46.982;15.248;2023-02-12T02:32:17;4.87;;;3.00;;
13866;SDS011;7003;46.982;15.248;2023-02-12T02:34:52;3.93;;;2.57;;
13866;SDS011;7003;46.982;15.248;2023-02-12T02:37:27;8.47;;;4.00;;
13866;SDS011;7003;46.982;15.248;2023-02-12T02:39:59;4.43;;;3.17;;
13866;SDS011;7003;46.982;15.248;2023-02-12T02:42:40;5.43;;;3.13;;
13866;SDS011;7003;46.982;15.248;2023-02-12T02:45:15;8.40;;;4.57;;
13866;SDS011;7003;46.982;15.248;2023-02-12T02:47:50;5.20;;;3.37;;
13866;SDS011;7003;46.982;15.248;2023-02-12T02:50:22;8.07;;;3.43;;
13866;SDS011;7003;46.982;15.248;2023-02-12T02:52:54;4.80;;;4.17;;
13866;SDS011;7003;46.982;15.248;2023-02-12T02:55:27;4.00;;;3.53;;
13866;SDS011;7003;46.982;15.248;2023-02-12T02:58:02;5.57;;;4.77;;
13866;SDS011;7003;46.982;15.248;2023-02-12T03:00:37;6.37;;;3.53;;
13866;SDS011;7003;46.982;15.248;2023-02-12T03:03:10;6.90;;;4.13;;
13866;SDS011;7003;46.982;15.248;2023-02-12T03:05:48;3.93;;;2.37;;
13866;SDS011;7003;46.982;15.248;2023-02-12T03:08:21;4.17;;;3.23;;
13866;SDS011;7003;46.982;15.248;2023-02-12T03:10:53;5.77;;;2.17;;
13866;SDS011;7003;46.982;15.248;2023-02-12T03:13:28;3.40;;;3.10;;
13866;SDS011;7003;46.982;15.248;2023-02-12T03:16:03;7.33;;;4.23;;
13866;SDS011;7003;46.982;15.248;2023-02-12T03:18:40;4.27;;;3.10;;
13866;SDS011;7003;46.982;15.248;2023-02-12T03:21:12;4.53;;;2.60;;
13866;SDS011;7003;46.982;15.248;2023-02-12T03:23:46;4.60;;;3.63;;
13866;SDS011;7003;46.982;15.248;2023-02-12T03:26:23;3.67;;;3.03;;
13866;SDS011;7003;46.982;15.248;2023-02-12T03:28:56;3.83;;;3.20;;
13866;SDS011;7003;46.982;15.248;2023-02-12T03:31:27;4.33;;;3.77;;
13866;SDS011;7003;46.982;15.248;2023-02-12T03:34:03;2.43;;;2.23;;
13866;SDS011;7003;46.982;15.248;2023-02-12T03:36:36;3.50;;;3.20;;
13866;SDS011;7003;46.982;15.248;2023-02-12T03:39:08;3.07;;;2.37;;
13866;SDS011;7003;46.982;15.248;2023-02-12T03:41:41;5.87;;;3.10;;
13866;SDS011;7003;46.982;15.248;2023-02-12T03:44:17;2.70;;;2.50;;
13866;SDS011;7003;46.982;15.248;2023-02-12T03:46:58;3.90;;;3.47;;
13866;SDS011;7003;46.982;15.248;2023-02-12T03:49:31;5.07;;;3.07;;
13866;SDS011;7003;46.982;15.248;2023-02-12T03:52:04;3.23;;;2.63;;
13866;SDS011;7003;46.982;15.248;2023-02-12T03:54:34;6.00;;;3.60;;
13866;SDS011;7003;46.982;15.248;2023-02-12T03:57:02;3.03;;;2.70;;
13866;SDS011;7003;46.982;15.248;2023-02-12T03:59:33;3.10;;;2.80;;
13866;SDS011;7003;46.982;15.248;2023-02-12T04:02:04;5.17;;;3.40;;
13866;SDS011;7003;46.982;15.248;2023-02-12T04:04:33;4.83;;;3.43;;
13866;SDS011;7003;46.982;15.248;2023-02-12T04:07:01;5.27;;;3.47;;
13866;SDS011;7003;46.982;15.248;2023-02-12T04:09:31;5.50;;;3.60;;
13866;SDS011;7003;46.982;15.248;2023-02-12T04:12:01;6.33;;;4.23;;
13866;SDS011;7003;46.982;15.248;2023-02-12T04:14:46;3.60;;;3.27;;
13866;SDS011;7003;46.982;15.248;2023-02-12T04:17:21;5.93;;;4.57;;
13866;SDS011;7003;46.982;15.248;2023-02-12T04:20:03;4.37;;;3.50;;
13866;SDS011;7003;46.982;15.248;2023-02-12T04:22:41;3.83;;;3.47;;
13866;SDS011;7003;46.982;15.248;2023-02-12T04:25:21;5.03;;;3.33;;
13866;SDS011;7003;46.982;15.248;2023-02-12T04:28:00;5.53;;;2.60;;
13866;SDS011;7003;46.982;15.248;2023-02-12T04:30:37;2.67;;;2.47;;
13866;SDS011;7003;46.982;15.248;2023-02-12T04:33:11;2.70;;;2.37;;
13866;SDS011;7003;46.982;15.248;2023-02-12T04:35:46;6.03;;;2.63;;
13866;SDS011;7003;46.982;15.248;2023-02-12T04:38:18;5.07;;;2.63;;
13866;SDS011;7003;46.982;15.248;2023-02-12T04:40:50;5.20;;;3.03;;
13866;SDS011;7003;46.982;15.248;2023-02-12T04:43:26;2.90;;;2.00;;
13866;SDS011;7003;46.982;15.248;2023-02-12T04:45:54;3.43;;;2.47;;
13866;SDS011;7003;46.982;15.248;2023-02-12T04:48:21;3.63;;;2.67;;
13866;SDS011;7003;46.982;15.248;2023-02-12T04:50:52;4.07;;;2.53;;
13866;SDS011;7003;46.982;15.248;2023-02-12T04:53:19;3.07;;;2.60;;
13866;SDS011;7003;46.982;15.248;2023-02-12T04:55:49;4.30;;;2.97;;
13866;SDS011;7003;46.982;15.248;2023-02-12T04:58:16;2.40;;;2.17;;
13866;SDS011;7003;46.982;15.248;2023-02-12T05:00:43;2.77;;;2.43;;
13866;SDS011;7003;46.982;15.248;2023-02-12T05:03:11;7.00;;;2.80;;
13866;SDS011;7003;46.982;15.248;2023-02-12T05:05:41;4.47;;;2.57;;
13866;SDS011;7003;46.982;15.248;2023-02-12T05:08:11;4.37;;;3.27;;
13866;SDS011;7003;46.982;15.248;2023-02-12T05:10:38;3.03;;;2.53;;
13866;SDS011;7003;46.982;15.248;2023-02-12T05:13:05;7.27;;;3.07;;
13866;SDS011;7003;46.982;15.248;2023-02-12T05:15:32;2.90;;;2.53;;
13866;SDS011;7003;46.982;15.248;2023-02-12T05:18:01;6.07;;;3.57;;
13866;SDS011;7003;46.982;15.248;2023-02-12T05:20:29;3.33;;;2.60;;
13866;SDS011;7003;46.982;15.248;2023-02-12T05:22:56;2.27;;;2.07;;
13866;SDS011;7003;46.982;15.248;2023-02-12T05:25:24;3.00;;;1.80;;
13866;SDS011;7003;46.982;15.248;2023-02-12T05:27:51;4.90;;;3.77;;
13866;SDS011;7003;46.982;15.248;2023-02-12T05:30:23;7.03;;;2.57;;
13866;SDS011;7003;46.982;15.248;2023-02-12T05:32:52;5.33;;;2.90;;
13866;SDS011;7003;46.982;15.248;2023-02-12T05:35:19;3.60;;;2.43;;
13866;SDS011;7003;46.982;15.248;2023-02-12T05:37:46;3.37;;;2.13;;
13866;SDS011;7003;46.982;15.248;2023-02-12T05:40:14;4.20;;;3.67;;
13866;SDS011;7003;46.982;15.248;2023-02-12T05:42:42;2.13;;;1.93;;
13866;SDS011;7003;46.982;15.248;2023-02-12T05:45:09;2.33;;;1.80;;
13866;SDS011;7003;46.982;15.248;2023-02-12T05:47:37;2.80;;;2.47;;
13866;SDS011;7003;46.982;15.248;2023-02-12T05:50:04;2.93;;;2.67;;
13866;SDS011;7003;46.982;15.248;2023-02-12T05:52:33;2.67;;;2.43;;
13866;SDS011;7003;46.982;15.248;2023-02-12T05:55:03;4.17;;;2.53;;
13866;SDS011;7003;46.982;15.248;2023-02-12T05:57:32;5.57;;;3.43;;
13866;SDS011;7003;46.982;15.248;2023-02-12T06:00:07;1.77;;;1.37;;
13866;SDS011;7003;46.982;15.248;2023-02-12T06:02:36;2.47;;;1.80;;
13866;SDS011;7003;46.982;15.248;2023-02-12T06:05:04;2.63;;;2.20;;
13866;SDS011;7003;46.982;15.248;2023-02-12T06:07:33;5.80;;;1.53;;
13866;SDS011;7003;46.982;15.248;2023-02-12T06:10:05;1.83;;;1.73;;
13866;SDS011;7003;46.982;15.248;2023-02-12T06:12:35;3.90;;;2.47;;
13866;SDS011;7003;46.982;15.248;2023-02-12T06:15:05;6.27;;;2.80;;
13866;SDS011;7003;46.982;15.248;2023-02-12T06:17:35;3.93;;;2.43;;
13866;SDS011;7003;46.982;15.248;2023-02-12T06:20:07;7.23;;;2.47;;
13866;SDS011;7003;46.982;15.248;2023-02-12T06:22:39;8.80;;;2.70;;
13866;SDS011;7003;46.982;15.248;2023-02-12T06:25:07;3.70;;;2.73;;
13866;SDS011;7003;46.982;15.248;2023-02-12T06:27:36;4.73;;;2.83;;
13866;SDS011;7003;46.982;15.248;2023-02-12T06:30:08;5.23;;;2.93;;
13866;SDS011;7003;46.982;15.248;2023-02-12T06:32:37;4.40;;;2.73;;
13866;SDS011;7003;46.982;15.248;2023-02-12T06:35:06;2.17;;;1.97;;
13866;SDS011;7003;46.982;15.248;2023-02-12T06:37:34;2.47;;;2.10;;
13866;SDS011;7003;46.982;15.248;2023-02-12T06:40:03;4.37;;;2.17;;
13866;SDS011;7003;46.982;15.248;2023-02-12T06:42:33;7.87;;;3.67;;
13866;SDS011;7003;46.982;15.248;2023-02-12T06:45:01;5.43;;;3.90;;
13866;SDS011;7003;46.982;15.248;2023-02-12T06:47:32;11.43;;;3.87;;
13866;SDS011;7003;46.982;15.248;2023-02-12T06:50:00;9.67;;;5.80;;
13866;SDS011;7003;46.982;15.248;2023-02-12T06:52:28;12.07;;;4.67;;
13866;SDS011;7003;46.982;15.248;2023-02-12T06:54:57;5.40;;;3.97;;
13866;SDS011;7003;46.982;15.248;2023-02-12T06:57:28;4.83;;;2.90;;
13866;SDS011;7003;46.982;15.248;2023-02-12T06:59:56;6.77;;;2.97;;
13866;SDS011;7003;46.982;15.248;2023-02-12T07:02:28;2.87;;;2.27;;
13866;SDS011;7003;46.982;15.248;2023-02-12T07:05:02;2.47;;;2.27;;
13866;SDS011;7003;46.982;15.248;2023-02-12T07:07:31;3.23;;;2.80;;
13866;SDS011;7003;46.982;15.248;2023-02-12T07:10:01;4.87;;;3.00;;
13866;SDS011;7003;46.982;15.248;2023-02-12T07:12:32;8.57;;;4.83;;
13866;SDS011;7003;46.982;15.248;2023-02-12T07:15:02;10.10;;;5.10;;
13866;SDS011;7003;46.982;15.248;2023-02-12T07:17:32;3.57;;;3.07;;
13866;SDS011;7003;46.982;15.248;2023-02-12T07:20:06;6.60;;;4.23;;
13866;SDS011;7003;46.982;15.248;2023-02-12T07:22:39;6.93;;;4.20;;
13866;SDS011;7003;46.982;15.248;2023-02-12T07:25:10;9.13;;;4.63;;
13866;SDS011;7003;46.982;15.248;2023-02-12T07:27:44;19.47;;;9.20;;
13866;SDS011;7003;46.982;15.248;2023-02-12T07:30:18;14.93;;;8.03;;
13866;SDS011;7003;46.982;15.248;2023-02-12T07:32:49;10.40;;;6.40;;
13866;SDS011;7003;46.982;15.248;2023-02-12T07:35:22;21.03;;;11.13;;
13866;SDS011;7003;46.982;15.248;2023-02-12T07:37:51;30.30;;;14.73;;
13866;SDS011;7003;46.982;15.248;2023-02-12T07:40:21;10.03;;;6.03;;
13866;SDS011;7003;46.982;15.248;2023-02-12T07:42:53;9.07;;;4.57;;
13866;SDS011;7003;46.982;15.248;2023-02-12T07:45:26;8.93;;;4.60;;
13866;SDS011;7003;46.982;15.248;2023-02-12T07:47:58;6.00;;;3.83;;
13866;SDS011;7003;46.982;15.248;2023-02-12T07:50:32;13.63;;;8.67;;
13866;SDS011;7003;46.982;15.248;2023-02-12T07:53:05;13.93;;;6.77;;
13866;SDS011;7003;46.982;15.248;2023-02-12T07:55:35;9.43;;;5.67;;
13866;SDS011;7003;46.982;15.248;2023-02-12T07:58:05;11.10;;;6.37;;
13866;SDS011;7003;46.982;15.248;2023-02-12T08:00:34;6.37;;;4.97;;
13866;SDS011;7003;46.982;15.248;2023-02-12T08:03:08;8.73;;;7.83;;
13866;SDS011;7003;46.982;15.248;2023-02-12T08:05:43;15.30;;;11.23;;
13866;SDS011;7003;46.982;15.248;2023-02-12T08:08:13;12.80;;;7.00;;
13866;SDS011;7003;46.982;15.248;2023-02-12T08:10:41;12.70;;;6.63;;
13866;SDS011;7003;46.982;15.248;2023-02-12T08:13:10;11.07;;;6.37;;
13866;SDS011;7003;46.982;15.248;2023-02-12T08:15:38;9.47;;;5.37;;
13866;SDS011;7003;46.982;15.248;2023-02-12T08:18:07;7.63;;;4.57;;
13866;SDS011;7003;46.982;15.248;2023-02-12T08:20:35;8.93;;;6.10;;
13866;SDS011;7003;46.982;15.248;2023-02-12T08:23:08;7.33;;;5.30;;
13866;SDS011;7003;46.982;15.248;2023-02-12T08:25:39;5.53;;;3.93;;
13866;SDS011;7003;46.982;15.248;2023-02-12T08:28:08;6.07;;;5.23;;
13866;SDS011;7003;46.982;15.248;2023-02-12T08:30:37;7.33;;;5.43;;
13866;SDS011;7003;46.982;15.248;2023-02-12T08:33:07;5.87;;;4.67;;
13866;SDS011;7003;46.982;15.248;2023-02-12T08:35:35;5.43;;;3.43;;
13866;SDS011;7003;46.982;15.248;2023-02-12T08:38:03;10.27;;;5.63;;
13866;SDS011;7003;46.982;15.248;2023-02-12T08:40:34;6.97;;;4.57;;
13866;SDS011;7003;46.982;15.248;2023-02-12T08:43:02;9.03;;;5.17;;
13866;SDS011;7003;46.982;15.248;2023-02-12T08:45:31;5.57;;;4.70;;
13866;SDS011;7003;46.982;15.248;2023-02-12T08:47:59;7.70;;;4.97;;
13866;SDS011;7003;46.982;15.248;2023-02-12T08:50:27;9.77;;;6.33;;
13866;SDS011;7003;46.982;15.248;2023-02-12T08:52:54;8.93;;;5.73;;
13866;SDS011;7003;46.982;15.248;2023-02-12T08:55:24;9.60;;;4.57;;
13866;SDS011;7003;46.982;15.248;2023-02-12T08:57:54;7.17;;;4.50;;
13866;SDS011;7003;46.982;15.248;2023-02-12T09:00:23;8.90;;;5.63;;
13866;SDS011;7003;46.982;15.248;2023-02-12T09:02:51;17.33;;;4.90;;
13866;SDS011;7003;46.982;15.248;2023-02-12T09:05:19;6.13;;;4.87;;
13866;SDS011;7003;46.982;15.248;2023-02-12T09:07:47;3.67;;;3.17;;
13866;SDS011;7003;46.982;15.248;2023-02-12T09:10:15;8.83;;;5.80;;
13866;SDS011;7003;46.982;15.248;2023-02-12T09:12:43;7.80;;;5.27;;
13866;SDS011;7003;46.982;15.248;2023-02-12T09:15:17;6.83;;;5.33;;
13866;SDS011;7003;46.982;15.248;2023-02-12T09:17:45;6.77;;;5.23;;
13866;SDS011;7003;46.982;15.248;2023-02-12T09:20:15;8.10;;;5.20;;
13866;SDS011;7003;46.982;15.248;2023-02-12T09:22:45;8.93;;;5.63;;
13866;SDS011;7003;46.982;15.248;2023-02-12T09:25:16;7.20;;;4.40;;
13866;SDS011;7003;46.982;15.248;2023-02-12T09:27:46;8.23;;;4.90;;
13866;SDS011;7003;46.982;15.248;2023-02-12T09:30:14;7.03;;;5.33;;
13866;SDS011;7003;46.982;15.248;2023-02-12T09:32:46;8.70;;;5.00;;
13866;SDS011;7003;46.982;15.248;2023-02-12T09:35:15;7.93;;;5.23;;
13866;SDS011;7003;46.982;15.248;2023-02-12T09:37:46;11.70;;;5.50;;
13866;SDS011;7003;46.982;15.248;2023-02-12T09:42:50;10.77;;;5.40;;
13866;SDS011;7003;46.982;15.248;2023-02-12T09:45:32;7.32;;;5.03;;
13866;SDS011;7003;46.982;15.248;2023-02-12T09:48:10;10.10;;;5.32;;
13866;SDS011;7003;46.982;15.248;2023-02-12T09:50:56;5.22;;;3.40;;
13866;SDS011;7003;46.982;15.248;2023-02-12T09:53:29;5.82;;;4.20;;
13866;SDS011;7003;46.982;15.248;2023-02-12T09:56:01;6.30;;;4.45;;
13866;SDS011;7003;46.982;15.248;2023-02-12T09:58:32;7.45;;;4.38;;
13866;SDS011;7003;46.982;15.248;2023-02-12T10:01:05;7.75;;;4.45;;
13866;SDS011;7003;46.982;15.248;2023-02-12T10:03:42;8.00;;;4.00;;
13866;SDS011;7003;46.982;15.248;2023-02-12T10:06:15;7.22;;;4.60;;
13866;SDS011;7003;46.982;15.248;2023-02-12T10:08:49;5.40;;;3.70;;
13866;SDS011;7003;46.982;15.248;2023-02-12T10:11:41;4.57;;;2.95;;
13866;SDS011;7003;46.982;15.248;2023-02-12T10:14:24;5.38;;;4.50;;
13866;SDS011;7003;46.982;15.248;2023-02-12T10:17:12;3.88;;;2.97;;
13866;SDS011;7003;46.982;15.248;2023-02-12T10:20:08;5.15;;;3.95;;
13866;SDS011;7003;46.982;15.248;2023-02-12T10:22:59;3.10;;;2.45;;
13866;SDS011;7003;46.982;15.248;2023-02-12T10:25:40;6.93;;;4.38;;
13866;SDS011;7003;46.982;15.248;2023-02-12T10:28:14;6.75;;;4.65;;
13866;SDS011;7003;46.982;15.248;2023-02-12T10:30:47;6.68;;;4.93;;
13866;SDS011;7003;46.982;15.248;2023-02-12T10:33:24;4.80;;;4.13;;
13866;SDS011;7003;46.982;15.248;2023-02-12T10:36:01;7.75;;;4.47;;
13866;SDS011;7003;46.982;15.248;2023-02-12T10:38:38;4.07;;;3.17;;
13866;SDS011;7003;46.982;15.248;2023-02-12T10:41:11;4.68;;;2.83;;
13866;SDS011;7003;46.982;15.248;2023-02-12T10:43:43;7.75;;;3.05;;
13866;SDS011;7003;46.982;15.248;2023-02-12T10:46:13;3.67;;;3.25;;
13866;SDS011;7003;46.982;15.248;2023-02-12T10:48:43;3.15;;;2.90;;
13866;SDS011;7003;46.982;15.248;2023-02-12T10:51:28;5.05;;;3.47;;
13866;SDS011;7003;46.982;15.248;2023-02-12T10:57:09;3.70;;;2.38;;
13866;SDS011;7003;46.982;15.248;2023-02-12T10:59:43;3.03;;;2.08;;
13866;SDS011;7003;46.982;15.248;2023-02-12T11:02:19;2.38;;;2.17;;
13866;SDS011;7003;46.982;15.248;2023-02-12T11:04:52;0.93;;;0.90;;
13866;SDS011;7003;46.982;15.248;2023-02-12T11:07:23;8.23;;;1.80;;
13866;SDS011;7003;46.982;15.248;2023-02-12T11:09:55;2.10;;;1.42;;
13866;SDS011;7003;46.982;15.248;2023-02-12T11:12:27;2.28;;;1.63;;
13866;SDS011;7003;46.982;15.248;2023-02-12T11:15:03;1.83;;;1.23;;
13866;SDS011;7003;46.982;15.248;2023-02-12T11:17:42;2.15;;;1.35;;
13866;SDS011;7003;46.982;15.248;2023-02-12T11:20:19;1.92;;;1.25;;
13866;SDS011;7003;46.982;15.248;2023-02-12T11:22:56;3.60;;;2.30;;
13866;SDS011;7003;46.982;15.248;2023-02-12T11:25:26;3.63;;;3.33;;
13866;SDS011;7003;46.982;15.248;2023-02-12T11:28:00;5.20;;;4.35;;
13866;SDS011;7003;46.982;15.248;2023-02-12T11:30:30;4.53;;;3.20;;
13866;SDS011;7003;46.982;15.248;2023-02-12T11:33:13;3.70;;;2.88;;
13866;SDS011;7003;46.982;15.248;2023-02-12T11:35:51;3.78;;;2.90;;
13866;SDS011;7003;46.982;15.248;2023-02-12T11:38:30;6.47;;;3.88;;
13866;SDS011;7003;46.982;15.248;2023-02-12T11:41:04;3.10;;;2.08;;
13866;SDS011;7003;46.982;15.248;2023-02-12T11:43:43;2.28;;;1.42;;
13866;SDS011;7003;46.982;15.248;2023-02-12T11:46:13;1.35;;;1.13;;
13866;SDS011;7003;46.982;15.248;2023-02-12T11:48:46;1.85;;;1.58;;
13866;SDS011;7003;46.982;15.248;2023-02-12T11:51:17;1.48;;;1.38;;
13866;SDS011;7003;46.982;15.248;2023-02-12T11:53:49;2.47;;;1.33;;
13866;SDS011;7003;46.982;15.248;2023-02-12T11:56:19;2.65;;;1.25;;
13866;SDS011;7003;46.982;15.248;2023-02-12T11:58:48;2.05;;;1.65;;
13866;SDS011;7003;46.982;15.248;2023-02-12T12:01:17;1.20;;;1.10;;
13866;SDS011;7003;46.982;15.248;2023-02-12T12:03:52;1.80;;;1.35;;
13866;SDS011;7003;46.982;15.248;2023-02-12T12:06:29;1.55;;;1.20;;
13866;SDS011;7003;46.982;15.248;2023-02-12T12:09:04;2.60;;;1.27;;
13866;SDS011;7003;46.982;15.248;2023-02-12T12:11:40;1.40;;;1.30;;
13866;SDS011;7003;46.982;15.248;2023-02-12T12:14:15;0.95;;;0.85;;
13866;SDS011;7003;46.982;15.248;2023-02-12T12:16:50;2.72;;;1.10;;
13866;SDS011;7003;46.982;15.248;2023-02-12T12:19:44;1.10;;;1.00;;
13866;SDS011;7003;46.982;15.248;2023-02-12T12:22:22;1.40;;;1.10;;
13866;SDS011;7003;46.982;15.248;2023-02-12T12:24:59;2.22;;;2.05;;
13866;SDS011;7003;46.982;15.248;2023-02-12T12:27:39;2.25;;;1.80;;
13866;SDS011;7003;46.982;15.248;2023-02-12T12:30:38;2.13;;;1.50;;
13866;SDS011;7003;46.982;15.248;2023-02-12T12:33:16;3.10;;;1.80;;
13866;SDS011;7003;46.982;15.248;2023-02-12T12:35:52;1.80;;;1.17;;
13866;SDS011;7003;46.982;15.248;2023-02-12T12:38:43;1.73;;;1.20;;
13866;SDS011;7003;46.982;15.248;2023-02-12T12:41:25;3.17;;;1.85;;
13866;SDS011;7003;46.982;15.248;2023-02-12T12:44:04;5.38;;;4.00;;
13866;SDS011;7003;46.982;15.248;2023-02-12T12:46:49;5.78;;;3.53;;
13866;SDS011;7003;46.982;15.248;2023-02-12T12:49:27;5.47;;;3.08;;
13866;SDS011;7003;46.982;15.248;2023-02-12T12:52:32;3.60;;;2.88;;
13866;SDS011;7003;46.982;15.248;2023-02-12T12:55:35;5.60;;;2.72;;
13866;SDS011;7003;46.982;15.248;2023-02-12T12:58:22;3.28;;;2.55;;
13866;SDS011;7003;46.982;15.248;2023-02-12T13:01:10;5.43;;;2.88;;
13866;SDS011;7003;46.982;15.248;2023-02-12T13:03:55;5.63;;;2.53;;
13866;SDS011;7003;46.982;15.248;2023-02-12T13:06:55;3.50;;;2.65;;
13866;SDS011;7003;46.982;15.248;2023-02-12T13:09:38;4.80;;;3.28;;
13866;SDS011;7003;46.982;15.248;2023-02-12T13:12:36;2.40;;;2.08;;
13866;SDS011;7003;46.982;15.248;2023-02-12T13:15:18;1.55;;;1.45;;
13866;SDS011;7003;46.982;15.248;2023-02-12T13:17:55;1.80;;;1.70;;
13866;SDS011;7003;46.982;15.248;2023-02-12T13:20:30;3.70;;;2.92;;
13866;SDS011;7003;46.982;15.248;2023-02-12T13:23:08;5.25;;;3.83;;
13866;SDS011;7003;46.982;15.248;2023-02-12T13:25:44;3.72;;;3.15;;
13866;SDS011;7003;46.982;15.248;2023-02-12T13:28:23;4.18;;;2.78;;
13866;SDS011;7003;46.982;15.248;2023-02-12T13:30:59;1.85;;;1.73;;
13866;SDS011;7003;46.982;15.248;2023-02-12T13:33:36;3.67;;;2.55;;
13866;SDS011;7003;46.982;15.248;2023-02-12T13:36:12;2.65;;;2.28;;
13866;SDS011;7003;46.982;15.248;2023-02-12T13:38:43;2.55;;;2.05;;
13866;SDS011;7003;46.982;15.248;2023-02-12T13:41:19;2.97;;;2.78;;
13866;SDS011;7003;46.982;15.248;2023-02-12T13:43:53;5.47;;;2.55;;
13866;SDS011;7003;46.982;15.248;2023-02-12T13:46:32;4.47;;;2.35;;
13866;SDS011;7003;46.982;15.248;2023-02-12T13:49:12;2.63;;;2.10;;
13866;SDS011;7003;46.982;15.248;2023-02-12T13:51:50;1.55;;;1.45;;
13866;SDS011;7003;46.982;15.248;2023-02-12T13:54:33;2.42;;;1.80;;
13866;SDS011;7003;46.982;15.248;2023-02-12T13:57:17;2.13;;;1.33;;
13866;SDS011;7003;46.982;15.248;2023-02-12T13:59:48;2.60;;;1.23;;
13866;SDS011;7003;46.982;15.248;2023-02-12T14:02:28;5.65;;;2.90;;
13866;SDS011;7003;46.982;15.248;2023-02-12T14:05:23;2.60;;;1.85;;
13866;SDS011;7003;46.982;15.248;2023-02-12T14:07:57;2.35;;;2.13;;
13866;SDS011;7003;46.982;15.248;2023-02-12T14:10:33;5.53;;;2.88;;
13866;SDS011;7003;46.982;15.248;2023-02-12T14:13:15;3.50;;;2.55;;
13866;SDS011;7003;46.982;15.248;2023-02-12T14:15:48;2.53;;;2.33;;
13866;SDS011;7003;46.982;15.248;2023-02-12T14:18:25;3.08;;;2.78;;
13866;SDS011;7003;46.982;15.248;2023-02-12T14:27:20;4.15;;;2.78;;
13866;SDS011;7003;46.982;15.248;2023-02-12T14:33:08;5.45;;;2.42;;
13866;SDS011;7003;46.982;15.248;2023-02-12T14:39:03;7.10;;;2.97;;
13866;SDS011;7003;46.982;15.248;2023-02-12T14:41:35;5.00;;;2.72;;
13866;SDS011;7003;46.982;15.248;2023-02-12T14:47:15;4.90;;;3.55;;
13866;SDS011;7003;46.982;15.248;2023-02-12T14:50:35;2.72;;;2.45;;
13866;SDS011;7003;46.982;15.248;2023-02-12T14:53:20;2.97;;;2.30;;
13866;SDS011;7003;46.982;15.248;2023-02-12T14:55:56;4.80;;;2.40;;
13866;SDS011;7003;46.982;15.248;2023-02-12T14:58:27;3.22;;;2.42;;
13866;SDS011;7003;46.982;15.248;2023-02-12T15:00:58;4.93;;;2.40;;
13866;SDS011;7003;46.982;15.248;2023-02-12T15:03:36;2.72;;;2.17;;
13866;SDS011;7003;46.982;15.248;2023-02-12T15:06:10;2.58;;;2.05;;
13866;SDS011;7003;46.982;15.248;2023-02-12T15:08:48;3.03;;;2.80;;
13866;SDS011;7003;46.982;15.248;2023-02-12T15:11:32;2.72;;;2.42;;
13866;SDS011;7003;46.982;15.248;2023-02-12T15:14:11;6.50;;;2.30;;
13866;SDS011;7003;46.982;15.248;2023-02-12T15:16:52;4.38;;;2.58;;
13866;SDS011;7003;46.982;15.248;2023-02-12T15:19:33;4.15;;;2.53;;
13866;SDS011;7003;46.982;15.248;2023-02-12T15:22:15;3.42;;;2.42;;
13866;SDS011;7003;46.982;15.248;2023-02-12T15:24:51;3.85;;;2.38;;
13866;SDS011;7003;46.982;15.248;2023-02-12T15:27:21;5.90;;;2.13;;
13866;SDS011;7003;46.982;15.248;2023-02-12T15:29:55;2.00;;;1.60;;
13866;SDS011;7003;46.982;15.248;2023-02-12T15:32:26;2.67;;;2.38;;
13866;SDS011;7003;46.982;15.248;2023-02-12T15:34:58;2.83;;;2.15;;
13866;SDS011;7003;46.982;15.248;2023-02-12T15:37:30;2.55;;;1.83;;
13866;SDS011;7003;46.982;15.248;2023-02-12T15:40:12;3.85;;;2.30;;
13866;SDS011;7003;46.982;15.248;2023-02-12T15:42:52;3.15;;;2.42;;
13866;SDS011;7003;46.982;15.248;2023-02-12T15:45:23;2.05;;;1.75;;
13866;SDS011;7003;46.982;15.248;2023-02-12T15:48:01;4.63;;;1.95;;
13866;SDS011;7003;46.982;15.248;2023-02-12T15:50:44;2.17;;;1.98;;